METAR AND TAF INFORMATION
METAR FOR GCXO
ADDS - METARS form results

(2313 UTC 15 December 2018)
Data provider http://aviationweather.gov/metar/data/
 
METAR text: GCXO 152300Z 26007KT 9999 FEW003 13/13 Q1028 NOSIG
Conditions at: GCXO (TENERIFE/LOS ROD, ES) observed 2300 UTC 15 December 2018
Temperature: 13.0°C (55°F)
Dewpoint: 13.0°C (55°F) [RH = 100%]
Pressure (altimeter): 30.35 inches Hg (1028.0 mb)
Winds: from the W (260 degrees) at 8 MPH (7 knots; 3.6 m/s)
Visibility: 6 or more miles (10+ km)
Ceiling: at least 12,000 feet AGL
Clouds: few clouds at 300 feet AGL
Weather: no significant weather observed at this time

METAR text: GCXO 152230Z 27008KT 9999 FEW005 13/13 Q1027 NOSIG
Conditions at: GCXO (TENERIFE/LOS ROD, ES) observed 2230 UTC 15 December 2018
Temperature: 13.0°C (55°F)
Dewpoint: 13.0°C (55°F) [RH = 100%]
Pressure (altimeter): 30.32 inches Hg (1027.0 mb)
Winds: from the W (270 degrees) at 9 MPH (8 knots; 4.1 m/s)
Visibility: 6 or more miles (10+ km)
Ceiling: at least 12,000 feet AGL
Clouds: few clouds at 500 feet AGL
Weather: no significant weather observed at this time

Forecast for: GCXO (TENERIFE/LOS ROD, ES)
Text: TAF GCXO 152000Z 1521/1621 30008KT 9999 FEW006 TX18/1614Z TN12/1606Z
Forecast period: 2100 UTC 15 December 2018 to 0500 UTC 16 December 2018
Forecast type: FROM: standard forecast or significant change
Winds: from the WNW (300 degrees) at 9 MPH (8 knots; 4.1 m/s)
Visibility: 6 or more miles 10+ km)
Ceiling: at least 12,000 feet AGL
Clouds: few clouds at 600 feet AGL
Weather: no significant weather forecast for this period
Text: BECMG 1605/1607 14010KT
Forecast period: 0500 to 2100 UTC 16 December 2018
Forecast type: BECOMING: Conditions expected to become as follows by 0700 UTC 16 December 2018
Winds: from the SE (140 degrees) at 12 MPH (10 knots; 5.1 m/s)
Visibility: 6 or more miles 10+ km)
Ceiling: at least 12,000 feet AGL
Clouds: few clouds at 600 feet AGL
Weather: no significant weather forecast for this period
Text: PROB40
Forecast period: 2200 UTC 15 December 2018 to 1000 UTC 16 December 2018
Forecast type: TEMPORARY: The following changes expected for less than half the time period
Visibility: 1.86 miles (2.99 km)
Ceiling: 500 feet AGL
Clouds: broken clouds at 500 feet AGL
Weather: BCFG  (patches of fog)

 AIRPORT MAP

 RUNWAY INFORMATION
Runway 12 Runway length 11155 ft Runway width 148 ft
Runway elevation 2060 ft Runway displaced threshold 0 ft Runway heading 111
Runway 30 Runway length 11155 ft Runway width 148 ft
Runway elevation 2002 ft Runway displaced threshold 0 ft Runway heading 291

 AIRPORT FREQUENCIES
Type APP Name APP Frequency 119.7 MHZ
Type ATIS Name ATIS Frequency 118.575 MHZ
Type GND Name GND Frequency 121.7 MHZ
Type TWR Name TWR Frequency 118.7 MHZ

 AIRPORT NEAR NAVIGATION AIDS
Type VOR-DME Name Tenerife Norte Frequency 117700 KHZ
Type NDB Name Tenerife Norte Frequency 410 KHZ



Powered by Virtual Airlines Manager [v2.6.2]